Time;durP1;ratioP1;P1;durP2;ratioP2;P2;SDS_P1;SDS_P2;PMS_P1;PMS_P2;Temp;Humidity;BMP_temperature;BMP_pressure;BME280_temperature;BME280_humidity;BME280_pressure;Samples;Min_cycle;Max_cycle;Signal;HPM_P1;HPM_P2
2022/08/15 00:01:08;;;;;;;;;;;;;;;25.23;46.84;98957.03;4461549;32;19992;-85
2022/08/15 00:03:37;;;;;;;;;;;;;;;25.25;46.97;98957.81;4459954;32;19995;-86
2022/08/15 00:06:28;;;;;;;;;;;;;;;25.24;46.83;98956.09;4465435;32;20035;-85
2022/08/15 00:09:07;;;;;;;;;;;;;;;25.34;46.47;98962.56;4459574;32;20008;-84
2022/08/15 00:11:36;;;;;;;;;;;;;;;25.44;46.04;98957.56;4466769;32;19999;-83
2022/08/15 00:14:05;;;;;;;;;;;;;;;25.23;46.59;98954.38;4475324;32;20299;-83
2022/08/15 00:16:47;;;;;;;;;;;;;;;25.08;47.22;98960.53;4455345;32;19977;-83
2022/08/15 00:19:15;;;;;;;;;;;;;;;25.19;46.70;98963.44;4459734;32;20357;-84
2022/08/15 00:21:47;;;;;;;;;;;;;;;25.19;46.42;98963.44;4447387;32;20056;-83
2022/08/15 00:24:19;;;;;;;;;;;;;;;25.24;46.52;98961.41;4461503;32;19988;-83
2022/08/15 00:26:54;;;;;;;;;;;;;;;25.07;47.32;98964.97;4461116;32;19981;-83
2022/08/15 00:29:24;;;;;;;;;;;;;;;25.02;47.55;98959.97;4463450;32;20091;-83
2022/08/15 00:32:08;;;;;;;;;;;;;;;24.84;48.00;98963.63;4467057;32;19992;-84
2022/08/15 00:34:55;;;;;;;;;;;;;;;25.05;47.03;98957.13;4461098;32;19984;-82
2022/08/15 00:37:22;;;;;;;;;;;;;;;24.82;47.78;98954.91;4462982;32;19964;-83
2022/08/15 00:39:49;;;;;;;;;;;;;;;24.87;47.74;98952.88;4468394;32;20482;-83
2022/08/15 00:42:23;;;;;;;;;;;;;;;24.77;48.22;98957.84;4463842;32;19988;-83
2022/08/15 00:44:56;;;;;;;;;;;;;;;24.86;47.93;98961.78;4462575;32;19997;-83
2022/08/15 00:47:34;;;;;;;;;;;;;;;24.83;47.80;98956.66;4465352;32;20021;-83
2022/08/15 00:50:06;;;;;;;;;;;;;;;24.80;47.98;98962.13;4461213;32;20342;-83
2022/08/15 00:52:53;;;;;;;;;;;;;;;25.03;47.53;98963.44;4461124;32;19988;-83
2022/08/15 00:55:21;;;;;;;;;;;;;;;24.81;48.24;98966.47;4460776;32;20334;-83
2022/08/15 00:57:53;;;;;;;;;;;;;;;24.71;48.44;98963.47;4464555;32;19988;-83
2022/08/15 01:00:29;;;;;;;;;;;;;;;24.77;48.15;98967.59;4454684;32;20005;-82
2022/08/15 01:03:02;;;;;;;;;;;;;;;24.70;48.39;98955.63;4449893;32;20310;-82
2022/08/15 01:05:29;;;;;;;;;;;;;;;24.62;48.68;98957.84;4460657;32;20310;-84
2022/08/15 01:07:56;;;;;;;;;;;;;;;24.18;49.78;98947.88;4460268;32;20713;-82
2022/08/15 01:10:24;;;;;;;;;;;;;;;24.57;48.53;98955.47;4462313;32;19980;-83
2022/08/15 01:12:52;;;;;;;;;;;;;;;24.55;48.67;98960.84;4461832;32;19988;-82
2022/08/15 01:15:19;;;;;;;;;;;;;;;24.54;48.96;98967.06;4461819;32;19984;-83
2022/08/15 01:17:55;;;;;;;;;;;;;;;24.41;49.64;98968.69;4462235;32;20051;-82
2022/08/15 01:20:24;;;;;;;;;;;;;;;24.56;48.99;98967.81;4463081;32;19999;-84
2022/08/15 01:23:04;;;;;;;;;;;;;;;24.58;48.78;98963.31;4461665;32;19996;-84
2022/08/15 01:25:34;;;;;;;;;;;;;;;24.61;48.60;98969.38;4439849;32;20048;-82
2022/08/15 01:28:32;;;;;;;;;;;;;;;24.53;48.89;98973.28;4445509;32;20025;-83
2022/08/15 01:31:00;;;;;;;;;;;;;;;24.30;49.44;98973.66;4444066;32;19982;-83
2022/08/15 01:33:32;;;;;;;;;;;;;;;24.25;49.67;98975.69;4430928;32;19986;-83
2022/08/15 01:35:59;;;;;;;;;;;;;;;24.34;49.36;98975.19;4431000;32;19991;-82
2022/08/15 01:38:30;;;;;;;;;;;;;;;24.35;49.30;98976.94;4430699;32;20000;-82
2022/08/15 01:41:23;;;;;;;;;;;;;;;24.30;49.38;98984.25;4420431;32;19992;-83
2022/08/15 01:44:08;;;;;;;;;;;;;;;24.41;48.88;98976.62;4443333;32;20040;-83
2022/08/15 01:46:56;;;;;;;;;;;;;;;24.36;48.93;98978.63;4446800;32;19985;-83
2022/08/15 01:49:26;;;;;;;;;;;;;;;24.22;49.06;98986.44;4455403;32;20327;-83
2022/08/15 01:51:54;;;;;;;;;;;;;;;24.32;48.81;98974.44;4433662;32;19988;-83
2022/08/15 01:54:21;;;;;;;;;;;;;;;24.37;48.57;98965.28;4452119;32;19985;-84
2022/08/15 01:57:09;;;;;;;;;;;;;;;24.21;49.13;98969.72;4449540;32;19996;-83
2022/08/15 01:59:36;;;;;;;;;;;;;;;24.14;49.17;98974.47;4452485;32;19968;-83
2022/08/15 02:02:04;;;;;;;;;;;;;;;24.07;49.25;98973.09;4447533;32;20005;-83
2022/08/15 02:04:52;;;;;;;;;;;;;;;24.20;48.70;98978.59;4452609;32;20326;-84
2022/08/15 02:07:22;;;;;;;;;;;;;;;24.12;49.08;98980.78;4445777;32;19997;-83
2022/08/15 02:09:50;;;;;;;;;;;;;;;24.31;48.60;98980.66;4447224;32;19985;-83
2022/08/15 02:12:20;;;;;;;;;;;;;;;24.18;49.13;98984.91;4449018;32;20008;-84
2022/08/15 02:15:14;;;;;;;;;;;;;;;24.05;49.61;98980.25;4453993;32;19993;-83
2022/08/15 02:17:42;;;;;;;;;;;;;;;24.09;49.25;98981.81;4452320;32;20544;-83
2022/08/15 02:20:12;;;;;;;;;;;;;;;24.25;48.52;98978.34;4445725;32;20012;-83
2022/08/15 02:22:51;;;;;;;;;;;;;;;24.12;49.06;98980.78;4445687;32;20020;-83
2022/08/15 02:25:18;;;;;;;;;;;;;;;24.27;48.90;98973.81;4433010;32;20326;-83
2022/08/15 02:27:50;;;;;;;;;;;;;;;24.41;48.17;98981.91;4447487;32;20370;-82
2022/08/15 02:30:18;;;;;;;;;;;;;;;24.17;48.93;98988.47;4454072;32;20026;-83
2022/08/15 02:32:58;;;;;;;;;;;;;;;23.99;49.59;98980.56;4451824;32;20346;-83
2022/08/15 02:35:26;;;;;;;;;;;;;;;24.13;49.12;98980.72;4450428;32;20316;-82
2022/08/15 02:37:55;;;;;;;;;;;;;;;23.98;49.69;98973.59;4456186;32;19981;-83
2022/08/15 02:40:24;;;;;;;;;;;;;;;23.95;49.78;98973.75;4448304;32;20006;-82
2022/08/15 02:43:12;;;;;;;;;;;;;;;23.96;49.63;98986.03;4446466;32;19989;-82
2022/08/15 02:45:47;;;;;;;;;;;;;;;24.01;49.53;98984.00;4452741;32;20262;-83
2022/08/15 02:48:36;;;;;;;;;;;;;;;23.95;49.89;98984.31;4448162;32;19996;-83
2022/08/15 02:51:08;;;;;;;;;;;;;;;24.14;49.04;98979.75;4446782;32;20065;-83
2022/08/15 02:53:40;;;;;;;;;;;;;;;24.07;49.23;98973.09;4449052;32;19997;-83
2022/08/15 02:56:14;;;;;;;;;;;;;;;23.97;49.78;98974.53;4445787;32;20032;-83
2022/08/15 02:58:42;;;;;;;;;;;;;;;23.91;49.91;98966.91;4447068;32;20446;-82
2022/08/15 03:01:10;;;;;;;;;;;;;;;23.96;49.74;98970.16;4458147;32;20048;-82
2022/08/15 03:03:43;;;;;;;;;;;;;;;23.87;50.00;98970.66;4447039;32;20095;-82
2022/08/15 03:06:12;;;;;;;;;;;;;;;23.84;49.98;98966.41;4445401;32;19981;-81
2022/08/15 03:08:43;;;;;;;;;;;;;;;23.94;49.59;98969.41;4446947;32;20477;-82
2022/08/15 03:11:13;;;;;;;;;;;;;;;23.95;49.45;98968.47;4432620;32;19999;-83
2022/08/15 03:13:40;;;;;;;;;;;;;;;23.81;50.22;98968.34;4455772;32;19984;-82
2022/08/15 03:16:09;;;;;;;;;;;;;;;23.77;50.26;98958.84;4446452;32;19997;-82
2022/08/15 03:18:49;;;;;;;;;;;;;;;23.84;50.03;98962.91;4446193;32;20278;-83
2022/08/15 03:21:19;;;;;;;;;;;;;;;23.73;50.45;98965.22;4463654;32;20082;-82
2022/08/15 03:23:51;;;;;;;;;;;;;;;23.55;51.06;98965.22;4445022;32;20022;-82
2022/08/15 03:26:20;;;;;;;;;;;;;;;23.36;51.54;98969.72;4446900;32;20013;-83
2022/08/15 03:28:59;;;;;;;;;;;;;;;23.52;50.94;98970.66;4452279;32;19993;-83
2022/08/15 03:31:32;;;;;;;;;;;;;;;23.52;51.06;98970.66;4446104;32;20440;-83
2022/08/15 03:34:11;;;;;;;;;;;;;;;23.50;51.24;98980.44;4446525;32;19988;-84
2022/08/15 03:36:45;;;;;;;;;;;;;;;23.50;51.31;98977.81;4445679;32;20001;-83
2022/08/15 03:39:19;;;;;;;;;;;;;;;23.66;50.62;98978.72;4447240;32;20032;-84
2022/08/15 03:41:46;;;;;;;;;;;;;;;23.36;51.59;98980.31;4452886;32;19977;-84
2022/08/15 03:44:20;;;;;;;;;;;;;;;23.39;51.27;98986.28;4446720;32;20409;-84
2022/08/15 03:46:55;;;;;;;;;;;;;;;23.60;50.69;98989.59;4454125;32;20342;-84
2022/08/15 03:49:23;;;;;;;;;;;;;;;23.49;51.11;98985.81;4460671;32;20328;-83
2022/08/15 03:52:08;;;;;;;;;;;;;;;23.34;51.51;98988.28;4459990;32;20000;-82
2022/08/15 03:54:36;;;;;;;;;;;;;;;23.29;51.81;98989.44;4441957;32;20795;-84
2022/08/15 03:57:06;;;;;;;;;;;;;;;23.39;51.32;98990.72;4445138;32;19989;-83
2022/08/15 03:59:34;;;;;;;;;;;;;;;23.38;51.36;98994.25;4446399;32;20410;-83
2022/08/15 04:02:07;;;;;;;;;;;;;;;23.39;51.37;98996.00;4446730;32;20033;-83
2022/08/15 04:04:55;;;;;;;;;;;;;;;23.52;50.62;99001.53;4446368;32;20133;-84
2022/08/15 04:07:26;;;;;;;;;;;;;;;23.34;51.29;99004.13;4432443;32;20034;-83
2022/08/15 04:10:10;;;;;;;;;;;;;;;23.43;51.25;98992.25;4452355;32;20766;-84
2022/08/15 04:12:57;;;;;;;;;;;;;;;23.38;51.23;99002.19;4446188;32;19985;-84
2022/08/15 04:15:27;;;;;;;;;;;;;;;23.44;51.18;99000.09;4469953;32;19973;-83
2022/08/15 04:17:56;;;;;;;;;;;;;;;23.38;51.55;98999.53;4454608;32;19995;-83
2022/08/15 04:20:28;;;;;;;;;;;;;;;23.47;51.35;98993.81;4444681;32;20030;-82
2022/08/15 04:22:59;;;;;;;;;;;;;;;23.45;51.49;98995.66;4453686;32;19991;-81
2022/08/15 04:25:33;;;;;;;;;;;;;;;23.52;51.36;98999.72;4457526;32;20329;-81
2022/08/15 04:28:04;;;;;;;;;;;;;;;23.59;51.28;99000.25;4459118;31;19985;-82
2022/08/15 04:30:50;;;;;;;;;;;;;;;23.70;51.20;99002.37;4451525;32;20048;-81
2022/08/15 04:33:17;;;;;;;;;;;;;;;23.67;51.24;99006.00;4457285;32;19989;-79
2022/08/15 04:36:09;;;;;;;;;;;;;;;23.69;51.40;99008.63;4465886;32;19999;-80
2022/08/15 04:38:45;;;;;;;;;;;;;;;23.75;51.36;99000.38;4451139;32;20879;-81
2022/08/15 04:41:16;;;;;;;;;;;;;;;23.91;50.40;98998.62;4460183;32;20028;-79
2022/08/15 04:44:03;;;;;;;;;;;;;;;23.80;51.07;99006.25;4450713;32;20371;-84
2022/08/15 04:46:31;;;;;;;;;;;;;;;23.99;50.44;99007.00;4456234;32;19970;-85
2022/08/15 04:48:59;;;;;;;;;;;;;;;23.92;50.61;99005.63;4446609;32;19982;-82
2022/08/15 04:51:27;;;;;;;;;;;;;;;24.13;50.08;99012.44;4468651;32;20344;-81
2022/08/15 04:54:03;;;;;;;;;;;;;;;24.17;49.96;99009.63;4455788;32;20289;-80
2022/08/15 04:56:30;;;;;;;;;;;;;;;24.18;49.42;99009.53;4463137;32;19981;-83
2022/08/15 04:59:14;;;;;;;;;;;;;;;24.20;49.03;99005.03;4462316;32;19980;-82
2022/08/15 05:02:02;;;;;;;;;;;;;;;24.18;49.48;99000.75;4461253;32;20097;-82
2022/08/15 05:04:49;;;;;;;;;;;;;;;24.22;49.26;98995.25;4453069;32;20386;-82
2022/08/15 05:07:17;;;;;;;;;;;;;;;24.36;49.04;99002.44;4447974;32;19997;-79
2022/08/15 05:09:47;;;;;;;;;;;;;;;24.43;49.17;98995.91;4456126;32;19988;-80
2022/08/15 05:12:28;;;;;;;;;;;;;;;24.62;48.65;98994.91;4447560;32;20023;-81
2022/08/15 05:15:14;;;;;;;;;;;;;;;24.62;48.48;98994.91;4437008;32;20379;-81
2022/08/15 05:17:45;;;;;;;;;;;;;;;24.50;48.19;98997.25;4454856;32;19996;-81
2022/08/15 05:20:26;;;;;;;;;;;;;;;24.69;47.57;99001.56;4456165;32;20044;-82
2022/08/15 05:23:02;;;;;;;;;;;;;;;24.61;47.59;98993.19;4446244;32;19989;-82
2022/08/15 05:25:37;;;;;;;;;;;;;;;24.55;48.29;98982.00;4438098;32;20011;-82
2022/08/15 05:28:09;;;;;;;;;;;;;;;24.78;47.67;98991.31;4457308;32;20004;-82
2022/08/15 05:30:58;;;;;;;;;;;;;;;24.88;47.01;98981.06;4462252;32;19988;-81
2022/08/15 05:33:33;;;;;;;;;;;;;;;24.86;47.51;98993.53;4451563;32;20023;-82
2022/08/15 05:36:20;;;;;;;;;;;;;;;24.90;48.27;98989.78;4446465;32;20449;-81
2022/08/15 05:38:58;;;;;;;;;;;;;;;24.95;48.11;98987.72;4445013;32;20076;-81
2022/08/15 05:41:44;;;;;;;;;;;;;;;25.09;47.55;98988.75;4446546;32;20262;-81
2022/08/15 05:44:32;;;;;;;;;;;;;;;25.22;46.82;98979.16;4443146;32;19990;-82
2022/08/15 05:47:14;;;;;;;;;;;;;;;25.28;46.61;98989.41;4444726;32;20016;-82
2022/08/15 05:49:46;;;;;;;;;;;;;;;25.24;47.41;98982.59;4450618;32;20708;-82
2022/08/15 05:52:22;;;;;;;;;;;;;;;25.28;48.00;98989.41;4443838;32;20001;-82
2022/08/15 05:54:58;;;;;;;;;;;;;;;25.45;47.54;98983.97;4448618;32;19993;-82
2022/08/15 05:57:28;;;;;;;;;;;;;;;25.60;46.89;98994.63;4442956;32;20915;-82
2022/08/15 05:59:59;;;;;;;;;;;;;;;25.64;47.54;98990.84;4431675;32;20346;-82
2022/08/15 06:02:30;;;;;;;;;;;;;;;25.68;47.50;98987.06;4450454;32;20003;-82
2022/08/15 06:05:26;;;;;;;;;;;;;;;25.78;47.05;98998.81;4444757;32;20000;-82
2022/08/15 06:08:04;;;;;;;;;;;;;;;25.82;46.51;98995.09;4447738;32;19977;-82
2022/08/15 06:10:39;;;;;;;;;;;;;;;25.88;46.70;98991.22;4449671;32;20000;-82
2022/08/15 06:13:15;;;;;;;;;;;;;;;25.92;46.50;98990.94;4451094;32;20031;-82
2022/08/15 06:15:47;;;;;;;;;;;;;;;26.21;46.05;98991.78;4445148;32;20000;-83
2022/08/15 06:18:21;;;;;;;;;;;;;;;26.17;45.83;98986.78;4453060;32;20034;-82
2022/08/15 06:21:08;;;;;;;;;;;;;;;26.12;45.84;98992.34;4443285;32;21026;-82
2022/08/15 06:23:54;;;;;;;;;;;;;;;26.42;46.00;99002.03;4444681;32;19981;-82
2022/08/15 06:26:44;;;;;;;;;;;;;;;26.65;45.87;98984.69;4448656;32;20136;-81
2022/08/15 06:29:40;;;;;;;;;;;;;;;26.80;45.70;98989.00;4451254;32;20052;-82
2022/08/15 06:32:12;;;;;;;;;;;;;;;26.99;45.11;98985.16;4438534;32;20756;-82
2022/08/15 06:35:00;;;;;;;;;;;;;;;27.10;45.10;98990.62;4444767;32;20011;-82
2022/08/15 06:37:34;;;;;;;;;;;;;;;27.31;45.17;98993.69;4451429;32;19985;-82
2022/08/15 06:40:25;;;;;;;;;;;;;;;27.49;44.38;98986.28;4450891;32;20735;-82
2022/08/15 06:42:55;;;;;;;;;;;;;;;27.81;43.31;98986.78;4458007;32;20043;-82
2022/08/15 06:45:30;;;;;;;;;;;;;;;28.15;42.39;98990.62;4450992;32;19985;-82
2022/08/15 06:48:12;;;;;;;;;;;;;;;28.57;41.23;98993.91;4455941;32;19985;-82
2022/08/15 06:51:00;;;;;;;;;;;;;;;28.81;41.13;98998.41;4451202;32;20329;-82
2022/08/15 06:53:48;;;;;;;;;;;;;;;29.33;41.80;98994.63;4460028;32;20080;-81
2022/08/15 06:56:22;;;;;;;;;;;;;;;29.61;39.44;98988.94;4459634;32;19997;-81
2022/08/15 06:58:55;;;;;;;;;;;;;;;30.21;39.34;98983.47;4460023;32;20007;-82
2022/08/15 07:01:23;;;;;;;;;;;;;;;30.63;37.80;98986.34;4461313;32;20284;-81
2022/08/15 07:04:30;;;;;;;;;;;;;;;30.99;37.94;98983.41;4458442;32;20016;-82
2022/08/15 07:07:13;;;;;;;;;;;;;;;31.49;36.74;98981.06;4442255;32;20839;-83
2022/08/15 07:09:52;;;;;;;;;;;;;;;31.96;35.58;98978.84;4461070;32;19995;-82
2022/08/15 07:12:25;;;;;;;;;;;;;;;31.63;37.31;98981.72;4455661;32;20008;-85
2022/08/15 07:15:16;;;;;;;;;;;;;;;31.88;34.96;98981.34;4443905;32;20328;-83
2022/08/15 07:17:51;;;;;;;;;;;;;;;31.53;35.88;98986.16;4444176;32;20341;-82
2022/08/15 07:20:25;;;;;;;;;;;;;;;31.72;35.32;98991.62;4449317;32;20003;-82
2022/08/15 07:23:15;;;;;;;;;;;;;;;31.62;35.80;98990.69;4445157;32;20255;-82
2022/08/15 07:25:44;;;;;;;;;;;;;;;31.68;35.59;98984.81;4452277;32;20034;-81
2022/08/15 07:28:11;;;;;;;;;;;;;;;31.57;35.98;98992.94;4451036;32;19984;-82
2022/08/15 07:30:58;;;;;;;;;;;;;;;31.24;36.23;98986.72;4444739;32;19985;-82
2022/08/15 07:33:45;;;;;;;;;;;;;;;31.37;35.73;98992.78;4442711;32;20325;-81
2022/08/15 07:36:24;;;;;;;;;;;;;;;31.22;36.22;98988.66;4442065;32;20437;-82
2022/08/15 07:39:19;;;;;;;;;;;;;;;31.45;36.50;98992.12;4444790;32;19996;-82
2022/08/15 07:42:13;;;;;;;;;;;;;;;31.45;36.46;98995.66;4445507;32;19993;-81
2022/08/15 07:45:00;;;;;;;;;;;;;;;31.67;35.96;98999.19;4449423;32;19977;-81
2022/08/15 07:47:33;;;;;;;;;;;;;;;31.52;36.53;99003.16;4448562;32;20446;-81
2022/08/15 07:50:04;;;;;;;;;;;;;;;31.83;35.75;98999.56;4460845;31;19994;-82
2022/08/15 07:52:34;;;;;;;;;;;;;;;32.10;35.83;99000.88;4469979;31;19979;-81
2022/08/15 07:55:12;;;;;;;;;;;;;;;32.03;35.52;98999.72;4461110;32;19997;-81
2022/08/15 07:58:05;;;;;;;;;;;;;;;32.59;33.66;99002.00;4461030;32;20026;-82
2022/08/15 08:00:35;;;;;;;;;;;;;;;32.71;33.58;99000.06;4459532;32;20444;-81
2022/08/15 08:03:32;;;;;;;;;;;;;;;33.10;32.84;98995.66;4460701;32;20011;-82
2022/08/15 08:06:08;;;;;;;;;;;;;;;32.87;32.65;99001.22;4467554;32;19991;-82
2022/08/15 08:09:00;;;;;;;;;;;;;;;33.26;31.96;98995.09;4462493;32;20046;-81
2022/08/15 08:11:48;;;;;;;;;;;;;;;33.49;31.86;98995.66;4465543;32;20064;-81
2022/08/15 08:14:42;;;;;;;;;;;;;;;33.12;31.94;98996.31;4459432;32;19989;-81
2022/08/15 08:17:22;;;;;;;;;;;;;;;33.42;33.06;99000.72;4459187;32;19999;-82
2022/08/15 08:19:58;;;;;;;;;;;;;;;33.71;31.71;98999.91;4459179;32;19981;-82
2022/08/15 08:22:34;;;;;;;;;;;;;;;33.63;30.99;98997.06;4460831;32;19984;-82
2022/08/15 08:25:15;;;;;;;;;;;;;;;33.45;31.12;98994.25;4460341;32;19989;-81
2022/08/15 08:28:08;;;;;;;;;;;;;;;33.71;30.37;98995.37;4459062;32;19977;-82
2022/08/15 08:30:40;;;;;;;;;;;;;;;34.00;31.40;98994.47;4464628;32;19993;-81
2022/08/15 08:33:24;;;;;;;;;;;;;;;34.15;31.55;98995.72;4467136;32;20344;-82
2022/08/15 08:35:54;;;;;;;;;;;;;;;34.21;30.34;98992.47;4461601;32;19996;-81
2022/08/15 08:38:26;;;;;;;;;;;;;;;34.56;28.58;98996.31;4447620;32;19991;-81
2022/08/15 08:41:34;;;;;;;;;;;;;;;34.57;28.56;98992.59;4443411;32;20435;-82
2022/08/15 08:44:25;;;;;;;;;;;;;;;34.38;29.63;98988.13;4442724;32;20382;-81
2022/08/15 08:46:53;;;;;;;;;;;;;;;34.76;29.70;98990.81;4443354;32;19977;-81
2022/08/15 08:49:36;;;;;;;;;;;;;;;34.87;29.01;98993.28;4444673;32;19977;-82
2022/08/15 08:52:23;;;;;;;;;;;;;;;34.91;30.91;98984.78;4443348;32;20609;-82
2022/08/15 08:54:53;;;;;;;;;;;;;;;34.71;29.37;98978.66;4444393;32;19989;-81
2022/08/15 08:57:39;;;;;;;;;;;;;;;34.87;28.07;98983.34;4443716;32;19989;-82
2022/08/15 09:00:11;;;;;;;;;;;;;;;34.76;28.59;98988.13;4429104;32;20003;-82
2022/08/15 09:02:48;;;;;;;;;;;;;;;34.55;27.29;98975.78;4459845;32;19994;-81
2022/08/15 09:05:29;;;;;;;;;;;;;;;34.77;28.42;98976.38;4472661;32;19976;-82
2022/08/15 09:08:15;;;;;;;;;;;;;;;34.58;27.34;98978.16;4475332;32;20444;-81
2022/08/15 09:10:48;;;;;;;;;;;;;;;35.24;26.39;98981.59;4461606;32;20022;-82
2022/08/15 09:13:35;;;;;;;;;;;;;;;35.15;27.67;98981.50;4463375;32;20042;-82
2022/08/15 09:16:08;;;;;;;;;;;;;;;35.04;27.75;98981.75;4474178;32;20004;-81
2022/08/15 09:19:01;;;;;;;;;;;;;;;34.70;26.63;98976.12;4474442;31;19999;-82
2022/08/15 09:21:28;;;;;;;;;;;;;;;34.76;27.01;98964.75;4465917;32;20325;-82
2022/08/15 09:24:04;;;;;;;;;;;;;;;34.91;26.05;98970.47;4459296;32;20715;-82
2022/08/15 09:27:00;;;;;;;;;;;;;;;34.62;26.79;98974.19;4459504;32;19980;-82
2022/08/15 09:29:29;;;;;;;;;;;;;;;34.67;26.68;98965.66;4463355;32;19985;-81
2022/08/15 09:32:10;;;;;;;;;;;;;;;34.53;25.92;98967.03;4468584;32;20401;-82
2022/08/15 09:35:11;;;;;;;;;;;;;;;35.13;25.25;98972.75;4470605;32;19996;-82
2022/08/15 09:37:49;;;;;;;;;;;;;;;35.44;26.96;98969.66;4478314;32;20072;-81
2022/08/15 09:40:39;;;;;;;;;;;;;;;35.57;25.07;98963.87;4476880;32;19987;-82
2022/08/15 09:43:33;;;;;;;;;;;;;;;35.80;24.82;98969.59;4469432;32;20010;-82
2022/08/15 09:46:24;;;;;;;;;;;;;;;34.40;25.41;98969.19;4469680;32;20469;-82
2022/08/15 09:49:28;;;;;;;;;;;;;;;34.60;26.33;98960.06;4460729;32;20317;-82
2022/08/15 09:52:10;;;;;;;;;;;;;;;34.88;25.58;98951.97;4464769;32;19980;-81
2022/08/15 09:55:00;;;;;;;;;;;;;;;34.93;24.69;98955.03;4464612;32;20045;-82
2022/08/15 09:57:34;;;;;;;;;;;;;;;35.35;24.67;98954.44;4465724;32;19977;-82
2022/08/15 10:00:15;;;;;;;;;;;;;;;35.25;24.63;98948.28;4462505;32;20309;-82
2022/08/15 10:02:48;;;;;;;;;;;;;;;34.81;24.31;98950.84;4471412;32;20003;-82
2022/08/15 10:05:21;;;;;;;;;;;;;;;35.56;24.91;98941.50;4464180;32;20310;-81
2022/08/15 10:07:54;;;;;;;;;;;;;;;35.48;24.01;98938.72;4471416;32;20308;-81
2022/08/15 10:10:34;;;;;;;;;;;;;;;35.70;24.89;98936.53;4478481;31;19988;-82
2022/08/15 10:13:11;;;;;;;;;;;;;;;35.22;22.27;98944.06;4478328;31;20377;-82
2022/08/15 10:15:46;;;;;;;;;;;;;;;34.65;24.08;98936.25;4473306;32;20040;-81
2022/08/15 10:18:26;;;;;;;;;;;;;;;34.61;23.98;98929.47;4461131;32;19994;-82
2022/08/15 10:20:53;;;;;;;;;;;;;;;34.87;24.44;98924.19;4462359;32;19989;-82
2022/08/15 10:23:41;;;;;;;;;;;;;;;34.50;25.08;98932.34;4464803;32;20053;-82
2022/08/15 10:26:14;;;;;;;;;;;;;;;34.81;24.80;98919.44;4467116;31;20000;-81
2022/08/15 10:29:01;;;;;;;;;;;;;;;35.21;22.90;98922.69;4470436;31;20011;-81
2022/08/15 10:31:30;;;;;;;;;;;;;;;35.44;22.46;98918.50;4462232;32;19989;-82
2022/08/15 10:34:19;;;;;;;;;;;;;;;34.95;23.11;98916.22;4461065;32;20386;-81
2022/08/15 10:37:13;;;;;;;;;;;;;;;34.80;24.59;98919.59;4460875;32;20284;-82
2022/08/15 10:39:57;;;;;;;;;;;;;;;35.01;25.67;98916.63;4450836;31;20008;-81
2022/08/15 10:42:27;;;;;;;;;;;;;;;34.46;23.96;98918.37;4462967;32;20610;-81
2022/08/15 10:44:59;;;;;;;;;;;;;;;35.08;22.69;98915.88;4466991;32;19996;-82
2022/08/15 10:47:47;;;;;;;;;;;;;;;34.82;22.52;98914.91;4466425;32;20238;-82
2022/08/15 10:50:46;;;;;;;;;;;;;;;34.70;22.95;98917.81;4464490;32;20007;-82
2022/08/15 10:53:16;;;;;;;;;;;;;;;34.91;22.53;98905.94;4466791;31;19981;-82
2022/08/15 10:55:43;;;;;;;;;;;;;;;35.29;23.03;98911.97;4462415;32;19992;-82
2022/08/15 10:58:25;;;;;;;;;;;;;;;35.47;22.79;98899.34;4472121;32;20040;-81
2022/08/15 11:01:06;;;;;;;;;;;;;;;35.20;22.73;98904.84;4476082;31;19998;-82
2022/08/15 11:03:39;;;;;;;;;;;;;;;35.68;22.52;98899.03;4469240;32;20419;-82
2022/08/15 11:06:26;;;;;;;;;;;;;;;36.07;23.41;98895.87;4466102;32;20043;-82
2022/08/15 11:09:11;;;;;;;;;;;;;;;35.49;24.66;98901.91;4462528;32;19968;-82
2022/08/15 11:11:43;;;;;;;;;;;;;;;35.50;23.72;98888.25;4464073;32;20004;-81
2022/08/15 11:14:19;;;;;;;;;;;;;;;35.85;23.21;98892.72;4473992;32;19981;-81
2022/08/15 11:16:55;;;;;;;;;;;;;;;35.62;23.82;98887.03;4468711;32;19980;-81
2022/08/15 11:19:36;;;;;;;;;;;;;;;35.93;23.64;98883.84;4460771;32;20061;-81
2022/08/15 11:22:37;;;;;;;;;;;;;;;35.52;23.09;98886.28;4467444;32;19989;-81
2022/08/15 11:25:13;;;;;;;;;;;;;;;35.21;23.49;98876.97;4461936;32;19981;-81
2022/08/15 11:27:40;;;;;;;;;;;;;;;34.79;24.04;98882.97;4440618;31;19984;-82
2022/08/15 11:30:08;;;;;;;;;;;;;;;34.97;24.18;98883.78;4299949;31;20024;-81
2022/08/15 11:32:49;;;;;;;;;;;;;;;34.75;24.28;98886.94;4483569;31;19992;-81
2022/08/15 11:35:26;;;;;;;;;;;;;;;35.54;22.26;98884.28;4489452;31;19984;-81
2022/08/15 11:37:54;;;;;;;;;;;;;;;35.08;23.36;98872.81;4490064;31;20004;-81
2022/08/15 11:40:26;;;;;;;;;;;;;;;35.54;23.56;98876.19;4475706;32;19980;-81
2022/08/15 11:42:54;;;;;;;;;;;;;;;36.04;21.37;98875.50;4472517;31;20532;-81
2022/08/15 11:45:28;;;;;;;;;;;;;;;35.27;23.58;98869.09;4482679;31;20002;-81
2022/08/15 11:48:23;;;;;;;;;;;;;;;34.59;23.41;98872.34;4488844;31;20317;-81
2022/08/15 11:51:14;;;;;;;;;;;;;;;34.31;23.20;98867.97;4474568;31;19991;-82
2022/08/15 11:54:00;;;;;;;;;;;;;;;34.03;23.68;98870.66;4482199;31;19977;-81
2022/08/15 11:56:46;;;;;;;;;;;;;;;34.40;23.37;98862.53;4476974;32;20025;-81
2022/08/15 11:59:26;;;;;;;;;;;;;;;34.28;23.59;98857.53;4476939;32;19996;-80
2022/08/15 12:02:03;;;;;;;;;;;;;;;34.29;23.35;98860.03;4477563;31;20011;-81
2022/08/15 12:04:33;;;;;;;;;;;;;;;34.53;23.58;98859.50;4485855;31;20371;-81
2022/08/15 12:07:20;;;;;;;;;;;;;;;34.20;24.51;98861.78;4486967;31;19988;-82
2022/08/15 12:09:51;;;;;;;;;;;;;;;34.55;24.62;98854.81;4480251;31;20007;-81
2022/08/15 12:12:32;;;;;;;;;;;;;;;34.18;24.81;98853.06;4476285;31;20665;-81
2022/08/15 12:15:14;;;;;;;;;;;;;;;34.77;23.24;98848.13;4451707;32;20005;-81
2022/08/15 12:18:00;;;;;;;;;;;;;;;35.02;23.50;98851.88;4472854;32;20834;-81
2022/08/15 12:20:41;;;;;;;;;;;;;;;34.60;22.55;98835.56;4477473;32;19984;-81
2022/08/15 12:23:19;;;;;;;;;;;;;;;35.22;23.19;98840.97;4474957;31;19977;-81
2022/08/15 12:25:53;;;;;;;;;;;;;;;35.30;25.36;98832.97;4474734;32;20305;-81
2022/08/15 12:28:21;;;;;;;;;;;;;;;34.88;22.13;98828.25;4472198;31;19981;-81
2022/08/15 12:31:14;;;;;;;;;;;;;;;34.73;21.57;98825.25;4463242;32;20031;-81
2022/08/15 12:33:43;;;;;;;;;;;;;;;35.03;21.56;98821.31;4470958;32;19976;-81
2022/08/15 12:36:18;;;;;;;;;;;;;;;35.22;21.06;98820.28;4468050;32;20336;-81
2022/08/15 12:39:05;;;;;;;;;;;;;;;35.34;22.37;98823.56;4467259;32;19993;-81
2022/08/15 12:41:36;;;;;;;;;;;;;;;35.29;23.46;98823.19;4479863;31;19984;-80
2022/08/15 12:44:25;;;;;;;;;;;;;;;35.33;22.83;98811.13;4482303;31;20061;-81
2022/08/15 12:46:56;;;;;;;;;;;;;;;35.55;22.44;98821.38;4489894;31;19984;-80
2022/08/15 12:49:23;;;;;;;;;;;;;;;35.46;22.75;98816.91;4489745;31;20373;-80
2022/08/15 12:51:50;;;;;;;;;;;;;;;35.41;23.70;98816.53;4490258;31;20032;-80
2022/08/15 12:54:17;;;;;;;;;;;;;;;35.98;22.09;98811.44;4491332;31;19976;-81
2022/08/15 12:56:53;;;;;;;;;;;;;;;35.74;21.92;98803.25;4489079;31;20047;-80
2022/08/15 12:59:37;;;;;;;;;;;;;;;35.40;21.06;98812.16;4491429;31;19991;-80
2022/08/15 13:02:08;;;;;;;;;;;;;;;35.18;22.34;98811.69;4489894;31;20018;-81
2022/08/15 13:04:36;;;;;;;;;;;;;;;34.62;22.01;98817.41;4485175;31;20382;-79
2022/08/15 13:07:21;;;;;;;;;;;;;;;34.44;22.40;98817.38;4493502;31;19984;-80
2022/08/15 13:09:57;;;;;;;;;;;;;;;33.88;22.00;98815.72;4494271;31;20051;-78
2022/08/15 13:12:25;;;;;;;;;;;;;;;33.92;22.87;98815.28;4486982;31;19985;-79
2022/08/15 13:14:52;;;;;;;;;;;;;;;33.66;21.63;98814.25;4487223;31;20460;-78
2022/08/15 13:17:19;;;;;;;;;;;;;;;33.90;21.41;98817.25;4494526;31;20302;-80
2022/08/15 13:25:39;;;;;;;;;;;;;;;34.76;21.94;98789.16;4494184;31;20024;-80
2022/08/15 13:28:13;;;;;;;;;;;;;;;34.71;21.32;98785.06;4487428;31;20000;-80
2022/08/15 13:30:40;;;;;;;;;;;;;;;34.62;23.39;98798.59;4478438;31;20321;-80
2022/08/15 13:33:27;;;;;;;;;;;;;;;34.40;22.06;98786.47;4478683;32;20029;-80
2022/08/15 13:35:55;;;;;;;;;;;;;;;34.43;23.45;98796.87;4477512;32;19977;-80
2022/08/15 13:38:27;;;;;;;;;;;;;;;34.18;22.32;98788.59;4479803;31;20045;-80
2022/08/15 13:40:57;;;;;;;;;;;;;;;34.34;23.08;98782.53;4476331;31;20041;-80
2022/08/15 13:43:28;;;;;;;;;;;;;;;34.31;23.40;98776.63;4461656;32;20063;-79
2022/08/15 13:46:18;;;;;;;;;;;;;;;34.17;22.50;98780.66;4468659;31;20266;-78